Time;durP1;ratioP1;P1;durP2;ratioP2;P2;SDS_P1;SDS_P2;PMS_P1;PMS_P2;Temp;Humidity;BMP_temperature;BMP_pressure;BME280_temperature;BME280_humidity;BME280_pressure;Samples;Min_cycle;Max_cycle;Signal;HPM_P1;HPM_P2
2022/05/03 00:02:27;;;;;;;12.85;6.57;;;13.40;99.90;;;;;;4754504;30;20147;-63
2022/05/03 00:05:04;;;;;;;14.02;6.72;;;13.50;99.90;;;;;;4752679;30;20171;-63
2022/05/03 00:07:40;;;;;;;13.45;8.10;;;13.60;99.90;;;;;;4753916;30;20202;-63
2022/05/03 00:10:11;;;;;;;12.25;6.75;;;13.50;99.90;;;;;;4753001;30;20122;-63
2022/05/03 00:13:01;;;;;;;12.07;7.00;;;13.50;99.90;;;;;;4757120;30;20458;-63
2022/05/03 00:15:39;;;;;;;12.98;7.35;;;13.50;99.90;;;;;;4756754;30;20412;-63
2022/05/03 00:18:08;;;;;;;11.93;6.50;;;13.50;99.90;;;;;;4758190;30;20431;-63
2022/05/03 00:20:35;;;;;;;11.57;6.85;;;13.50;99.90;;;;;;4753833;30;20097;-63
2022/05/03 00:23:02;;;;;;;13.38;7.78;;;13.50;99.90;;;;;;4753324;30;20149;-63
2022/05/03 00:25:30;;;;;;;11.57;7.63;;;13.40;99.90;;;;;;4754438;30;20051;-63
2022/05/03 00:27:58;;;;;;;16.83;8.18;;;13.40;99.90;;;;;;4755373;30;20816;-63
2022/05/03 00:30:28;;;;;;;16.02;8.45;;;13.40;99.90;;;;;;4753593;30;20210;-63
2022/05/03 00:32:56;;;;;;;16.33;8.02;;;13.40;99.90;;;;;;4752849;30;20140;-63
2022/05/03 00:35:23;;;;;;;13.88;7.75;;;13.40;99.90;;;;;;4753075;30;20113;-63
2022/05/03 00:37:50;;;;;;;13.05;7.05;;;13.40;99.90;;;;;;4753031;30;20202;-63
2022/05/03 00:40:20;;;;;;;15.23;7.85;;;13.30;99.90;;;;;;4737509;30;20473;-63
2022/05/03 00:43:18;;;;;;;13.60;7.13;;;13.30;99.90;;;;;;4743264;30;20479;-62
2022/05/03 00:45:52;;;;;;;10.30;6.70;;;13.30;99.90;;;;;;4733366;30;20060;-62
2022/05/03 00:48:22;;;;;;;15.68;8.55;;;13.30;99.90;;;;;;4753954;30;20048;-62
2022/05/03 00:50:55;;;;;;;14.35;7.30;;;13.20;99.90;;;;;;4751260;30;20459;-62
2022/05/03 00:53:31;;;;;;;13.43;8.20;;;13.20;99.90;;;;;;4755202;30;20113;-62
2022/05/03 00:56:38;;;;;;;16.45;7.45;;;13.20;99.90;;;;;;4755745;30;20614;-62
2022/05/03 00:59:22;;;;;;;13.48;7.18;;;13.10;99.90;;;;;;4744474;30;20412;-62
2022/05/03 01:02:02;;;;;;;14.03;7.40;;;13.10;99.90;;;;;;4751525;30;22281;-63
2022/05/03 01:04:56;;;;;;;14.43;7.28;;;13.10;99.90;;;;;;4737156;30;20056;-63
2022/05/03 01:07:27;;;;;;;11.85;7.18;;;13.10;99.90;;;;;;4725500;30;20055;-63
2022/05/03 01:10:13;;;;;;;13.63;7.15;;;13.10;99.90;;;;;;4754791;30;20056;-63
2022/05/03 01:13:04;;;;;;;12.77;7.07;;;13.00;99.90;;;;;;4753650;30;20515;-63
2022/05/03 01:15:41;;;;;;;12.68;6.88;;;13.00;99.90;;;;;;4738149;30;20055;-63
2022/05/03 01:18:51;;;;;;;13.95;7.05;;;13.00;99.90;;;;;;4755110;30;20055;-62
2022/05/03 01:21:46;;;;;;;14.07;6.63;;;12.90;99.90;;;;;;4663803;30;20060;-62
2022/05/03 01:24:37;;;;;;;13.40;7.10;;;13.00;99.90;;;;;;4751643;30;20523;-62
2022/05/03 01:27:23;;;;;;;13.70;6.78;;;12.90;99.90;;;;;;4751242;30;20071;-62
2022/05/03 01:29:50;;;;;;;12.90;7.10;;;12.90;99.90;;;;;;4752123;30;20097;-63
2022/05/03 01:32:21;;;;;;;14.32;6.38;;;12.90;99.90;;;;;;4756555;30;20043;-63
2022/05/03 01:34:49;;;;;;;15.05;7.82;;;12.90;99.90;;;;;;4753608;30;20133;-63
2022/05/03 01:37:36;;;;;;;9.63;5.70;;;12.90;99.90;;;;;;4751698;30;20052;-63
2022/05/03 01:40:06;;;;;;;10.50;5.55;;;12.90;99.90;;;;;;4738446;30;20051;-62
2022/05/03 01:43:06;;;;;;;16.15;7.38;;;12.90;99.90;;;;;;4750655;30;20059;-62
2022/05/03 01:45:51;;;;;;;16.10;7.18;;;12.90;99.90;;;;;;4752088;30;20448;-62
2022/05/03 01:51:45;;;;;;;14.43;6.90;;;12.80;99.90;;;;;;4752265;30;20043;-62
2022/05/03 01:54:23;;;;;;;14.63;7.50;;;12.80;99.90;;;;;;4738478;30;20109;-62
2022/05/03 01:57:11;;;;;;;13.35;7.10;;;12.80;99.90;;;;;;4751945;30;20052;-63
2022/05/03 01:59:57;;;;;;;27.73;7.28;;;12.80;99.90;;;;;;4737441;30;20543;-62
2022/05/03 02:02:53;;;;;;;14.63;7.65;;;12.80;99.90;;;;;;4751588;30;20137;-62
2022/05/03 02:05:34;;;;;;;12.32;6.82;;;12.80;99.90;;;;;;4748991;30;20048;-62
2022/05/03 02:08:01;;;;;;;13.70;7.65;;;12.80;99.90;;;;;;4752872;30;20055;-62
2022/05/03 02:10:53;;;;;;;12.13;6.40;;;12.80;99.90;;;;;;4740895;30;20071;-62
2022/05/03 02:16:33;;;;;;;13.68;6.63;;;12.70;99.90;;;;;;4755960;30;20044;-62
2022/05/03 02:19:20;;;;;;;12.00;6.47;;;12.70;99.90;;;;;;4737415;30;20611;-63
2022/05/03 02:22:15;;;;;;;12.57;6.72;;;12.70;99.90;;;;;;4743486;30;20109;-63
2022/05/03 02:24:56;;;;;;;10.25;6.05;;;12.70;99.90;;;;;;4751549;30;20447;-63
2022/05/03 02:27:28;;;;;;;12.25;6.43;;;12.60;99.90;;;;;;4754456;30;20083;-63
2022/05/03 02:29:58;;;;;;;11.35;6.60;;;12.60;99.90;;;;;;4759357;30;20052;-63
2022/05/03 02:32:33;;;;;;;15.27;6.75;;;12.60;99.90;;;;;;4754495;30;20047;-63
2022/05/03 02:35:04;;;;;;;13.48;6.43;;;12.60;99.90;;;;;;4755836;30;20582;-63
2022/05/03 02:37:42;;;;;;;13.43;6.53;;;12.60;99.90;;;;;;4740473;30;20529;-62
2022/05/03 02:40:13;;;;;;;11.50;6.60;;;12.60;99.90;;;;;;4755676;30;20141;-62
2022/05/03 02:42:40;;;;;;;12.32;6.70;;;12.60;99.90;;;;;;4754513;30;20143;-62
2022/05/03 02:45:08;;;;;;;13.77;7.43;;;12.50;99.90;;;;;;4740400;30;20877;-62
2022/05/03 02:48:00;;;;;;;12.15;6.55;;;12.50;99.90;;;;;;4756709;30;20124;-63
2022/05/03 02:50:36;;;;;;;12.23;7.22;;;12.30;99.90;;;;;;4754324;30;20044;-62
2022/05/03 02:53:08;;;;;;;12.43;6.38;;;12.30;99.90;;;;;;4737115;30;20082;-63
2022/05/03 02:55:36;;;;;;;14.65;7.13;;;12.40;99.90;;;;;;4756731;30;20512;-62
2022/05/03 02:58:29;;;;;;;13.35;6.82;;;12.30;99.90;;;;;;4744620;30;20067;-62
2022/05/03 03:04:25;;;;;;;11.93;5.93;;;12.30;99.90;;;;;;4753813;30;20420;-62
2022/05/03 03:06:55;;;;;;;11.80;6.22;;;12.30;99.90;;;;;;4756840;30;20063;-62
2022/05/03 03:09:28;;;;;;;10.52;5.95;;;12.30;99.90;;;;;;4756041;30;20058;-62
2022/05/03 03:12:20;;;;;;;13.85;6.10;;;12.30;99.90;;;;;;4751128;30;20137;-62
2022/05/03 03:14:48;;;;;;;12.40;6.18;;;12.30;99.90;;;;;;4752120;30;20052;-62
2022/05/03 03:17:20;;;;;;;12.93;7.05;;;12.30;99.90;;;;;;4755632;30;20462;-62
2022/05/03 03:19:48;;;;;;;10.30;6.15;;;12.30;99.90;;;;;;4754604;30;20055;-62
2022/05/03 03:22:16;;;;;;;15.35;6.75;;;12.20;99.90;;;;;;4754306;30;20515;-62
2022/05/03 03:24:43;;;;;;;13.75;6.38;;;12.20;99.90;;;;;;4757075;30;20684;-62
2022/05/03 03:27:11;;;;;;;11.82;6.32;;;12.20;99.90;;;;;;4753468;30;20495;-62
2022/05/03 03:29:40;;;;;;;11.95;6.82;;;12.20;99.90;;;;;;4745596;30;20116;-62
2022/05/03 03:32:09;;;;;;;10.38;6.75;;;12.20;99.90;;;;;;4754907;30;20105;-62
2022/05/03 03:34:40;;;;;;;12.02;7.00;;;12.20;99.90;;;;;;4738153;30;20151;-62
2022/05/03 03:37:07;;;;;;;13.73;6.88;;;12.20;99.90;;;;;;4753859;30;20565;-62
2022/05/03 03:39:36;;;;;;;13.40;7.10;;;12.10;99.90;;;;;;4756077;30;20504;-62
2022/05/03 03:42:05;;;;;;;12.90;6.80;;;12.10;99.90;;;;;;4740502;30;20141;-62
2022/05/03 03:44:32;;;;;;;12.20;6.50;;;12.20;99.90;;;;;;4752453;30;20442;-62
2022/05/03 03:47:01;;;;;;;13.95;7.15;;;12.10;99.90;;;;;;4756002;30;20162;-62
2022/05/03 03:49:29;;;;;;;16.77;8.05;;;12.10;99.90;;;;;;4738945;30;20134;-62
2022/05/03 03:52:07;;;;;;;12.18;7.15;;;12.10;99.90;;;;;;4749158;30;20043;-62
2022/05/03 03:54:35;;;;;;;12.55;7.22;;;12.10;99.90;;;;;;4753355;30;20499;-62
2022/05/03 03:57:04;;;;;;;10.52;7.10;;;12.10;99.90;;;;;;4754984;30;20047;-63
2022/05/03 03:59:32;;;;;;;16.88;7.45;;;12.10;99.90;;;;;;4756013;30;20144;-62
2022/05/03 04:02:00;;;;;;;14.30;7.07;;;12.10;99.90;;;;;;4755159;30;20495;-62
2022/05/03 04:04:32;;;;;;;14.73;7.32;;;12.10;99.90;;;;;;4736948;30;21538;-62
2022/05/03 04:07:00;;;;;;;17.77;7.85;;;12.10;99.90;;;;;;4754048;30;20457;-62
2022/05/03 04:09:28;;;;;;;12.15;7.20;;;12.10;99.90;;;;;;4754255;30;20054;-62
2022/05/03 04:11:55;;;;;;;12.43;7.15;;;12.10;99.90;;;;;;4754185;30;20079;-62
2022/05/03 04:14:22;;;;;;;15.20;8.52;;;12.10;99.90;;;;;;4755636;30;20083;-62
2022/05/03 04:16:49;;;;;;;16.50;7.53;;;12.20;99.90;;;;;;4755024;30;20051;-63
2022/05/03 04:19:16;;;;;;;16.63;8.55;;;12.20;99.90;;;;;;4754354;30;20142;-63
2022/05/03 04:21:45;;;;;;;16.02;9.20;;;12.10;99.90;;;;;;4756763;30;20113;-62
2022/05/03 04:24:12;;;;;;;19.60;9.75;;;12.00;99.90;;;;;;4738971;30;20495;-62
2022/05/03 04:26:39;;;;;;;16.92;8.30;;;12.10;99.90;;;;;;4755980;30;20148;-63
2022/05/03 04:29:07;;;;;;;18.02;9.43;;;12.20;99.90;;;;;;4754853;30;20134;-63
2022/05/03 04:31:35;;;;;;;17.27;8.57;;;12.30;99.90;;;;;;4755396;30;20044;-63
2022/05/03 04:34:04;;;;;;;16.25;9.23;;;12.30;99.90;;;;;;4753104;30;20051;-63
2022/05/03 04:36:33;;;;;;;21.73;9.13;;;12.40;99.90;;;;;;4740400;30;20050;-63
2022/05/03 04:39:00;;;;;;;17.30;8.90;;;12.50;99.90;;;;;;4754454;30;20044;-63
2022/05/03 04:41:28;;;;;;;14.55;8.32;;;12.50;99.90;;;;;;4753945;30;20051;-63
2022/05/03 04:43:57;;;;;;;17.13;9.63;;;12.60;99.90;;;;;;4740614;30;20084;-62
2022/05/03 04:46:24;;;;;;;17.33;9.13;;;12.60;99.90;;;;;;4754405;30;20051;-62
2022/05/03 04:48:51;;;;;;;17.73;9.50;;;12.60;99.90;;;;;;4741754;30;20070;-62
2022/05/03 04:51:22;;;;;;;17.77;9.10;;;12.70;99.90;;;;;;4757253;30;20052;-62
2022/05/03 04:53:50;;;;;;;17.58;9.38;;;12.70;99.90;;;;;;4738817;30;20055;-62
2022/05/03 04:56:18;;;;;;;15.70;8.38;;;12.80;99.90;;;;;;4733373;30;20047;-62
2022/05/03 04:58:46;;;;;;;15.38;8.25;;;12.80;99.90;;;;;;4748337;30;20066;-62
2022/05/03 05:01:14;;;;;;;16.77;8.40;;;12.90;99.90;;;;;;4736362;30;20052;-62
2022/05/03 05:03:42;;;;;;;13.85;8.77;;;13.00;99.90;;;;;;4717940;30;20063;-62
2022/05/03 05:06:10;;;;;;;15.13;8.43;;;13.00;99.90;;;;;;4721390;30;20089;-62
2022/05/03 05:08:39;;;;;;;16.92;8.85;;;13.10;99.90;;;;;;4720705;30;20078;-62
2022/05/03 05:11:06;;;;;;;17.83;8.75;;;13.10;99.90;;;;;;4705500;30;20114;-62
2022/05/03 05:13:36;;;;;;;16.90;9.05;;;13.20;99.90;;;;;;4712869;30;20047;-62
2022/05/03 05:16:04;;;;;;;13.48;8.65;;;13.20;99.90;;;;;;4710896;30;22191;-62
2022/05/03 05:18:32;;;;;;;17.27;7.90;;;13.30;99.90;;;;;;4723639;30;20576;-62
2022/05/03 05:20:59;;;;;;;15.57;8.45;;;13.30;99.90;;;;;;4719808;30;20566;-62
2022/05/03 05:23:27;;;;;;;12.88;7.53;;;13.40;99.90;;;;;;4720697;30;20043;-62
2022/05/03 05:25:54;;;;;;;14.10;7.38;;;13.50;99.90;;;;;;4717101;30;20214;-62
2022/05/03 05:28:23;;;;;;;15.75;7.60;;;13.60;99.90;;;;;;4721869;30;20051;-62
2022/05/03 05:30:51;;;;;;;10.85;6.22;;;13.70;99.90;;;;;;4719350;30;20059;-63
2022/05/03 05:33:20;;;;;;;14.23;7.65;;;13.80;99.90;;;;;;4718988;30;20059;-63
2022/05/03 05:35:48;;;;;;;11.43;6.82;;;13.90;99.90;;;;;;4695980;30;20055;-63
2022/05/03 05:38:17;;;;;;;12.68;7.30;;;14.00;99.90;;;;;;4720945;30;20870;-63
2022/05/03 05:40:46;;;;;;;13.00;6.53;;;14.10;99.90;;;;;;4710073;30;20319;-63
2022/05/03 05:43:16;;;;;;;10.65;7.05;;;14.20;99.90;;;;;;4720927;30;20063;-63
2022/05/03 05:45:44;;;;;;;14.27;8.45;;;14.40;99.90;;;;;;4717159;30;20059;-63
2022/05/03 05:48:14;;;;;;;12.40;7.43;;;14.40;99.90;;;;;;4711437;30;20469;-63
2022/05/03 05:50:41;;;;;;;12.68;7.82;;;14.60;99.90;;;;;;4720311;30;20079;-62
2022/05/03 05:55:54;;;;;;;13.20;8.20;;;14.80;99.80;;;;;;4717651;30;20066;-62
2022/05/03 05:58:21;;;;;;;12.65;6.70;;;14.90;98.20;;;;;;4721082;30;20143;-63
2022/05/03 06:00:48;;;;;;;10.63;6.60;;;15.00;97.90;;;;;;4711867;30;20112;-63
2022/05/03 06:03:16;;;;;;;13.15;6.97;;;15.10;98.40;;;;;;4706989;30;20063;-62
2022/05/03 06:05:43;;;;;;;11.07;6.72;;;15.30;95.90;;;;;;4700398;30;20063;-62
2022/05/03 06:08:11;;;;;;;12.90;6.75;;;15.30;96.20;;;;;;4698298;30;20159;-62
2022/05/03 06:10:37;;;;;;;13.27;6.85;;;15.40;97.40;;;;;;4703547;30;20210;-62
2022/05/03 06:13:05;;;;;;;11.63;6.20;;;15.60;95.00;;;;;;4706054;30;20055;-62
2022/05/03 06:15:32;;;;;;;11.70;7.25;;;15.80;95.10;;;;;;4719655;30;20534;-63
2022/05/03 06:17:59;;;;;;;11.20;6.30;;;15.90;94.70;;;;;;4718009;30;20757;-63
2022/05/03 06:20:27;;;;;;;10.07;6.53;;;15.90;92.70;;;;;;4718557;30;20058;-62
2022/05/03 06:22:54;;;;;;;10.13;6.88;;;16.10;93.40;;;;;;4699862;30;20176;-63
2022/05/03 06:25:23;;;;;;;14.27;7.28;;;16.30;93.70;;;;;;4714889;30;20189;-62
2022/05/03 06:27:51;;;;;;;10.95;5.97;;;16.40;93.90;;;;;;4717482;30;20083;-62
2022/05/03 06:30:19;;;;;;;12.18;7.00;;;16.50;91.50;;;;;;4717553;30;20055;-62
2022/05/03 06:32:47;;;;;;;12.38;7.63;;;16.60;93.70;;;;;;4711298;30;20059;-62
2022/05/03 06:35:14;;;;;;;10.23;6.85;;;16.60;91.10;;;;;;4713721;30;20494;-62
2022/05/03 06:37:42;;;;;;;16.50;6.22;;;16.70;91.60;;;;;;4722814;30;20796;-63
2022/05/03 06:40:10;;;;;;;9.32;6.03;;;16.80;90.80;;;;;;4714989;30;20095;-63
2022/05/03 06:42:41;;;;;;;9.65;6.15;;;16.80;89.70;;;;;;4682817;30;20211;-63
2022/05/03 06:45:10;;;;;;;13.88;6.75;;;17.00;87.40;;;;;;4718530;30;20056;-62
2022/05/03 06:47:49;;;;;;;12.32;6.90;;;17.10;90.40;;;;;;4714861;30;20064;-62
2022/05/03 06:50:17;;;;;;;10.25;6.85;;;17.30;88.70;;;;;;4718640;30;22062;-62
2022/05/03 06:52:44;;;;;;;11.35;6.45;;;17.50;88.00;;;;;;4696937;30;20677;-62
2022/05/03 06:55:11;;;;;;;10.68;6.35;;;17.50;87.60;;;;;;4721724;30;20381;-62
2022/05/03 06:57:39;;;;;;;13.45;6.65;;;17.70;85.00;;;;;;4718182;30;20669;-63
2022/05/03 07:00:08;;;;;;;9.65;5.97;;;17.70;86.50;;;;;;4711480;30;20192;-63
2022/05/03 07:02:36;;;;;;;11.05;6.60;;;17.80;82.30;;;;;;4694825;30;20058;-63
2022/05/03 07:05:04;;;;;;;13.15;5.75;;;17.90;81.30;;;;;;4706108;30;20055;-62
2022/05/03 07:07:33;;;;;;;11.23;5.60;;;17.90;78.70;;;;;;4719390;30;20063;-62
2022/05/03 07:10:00;;;;;;;10.15;5.55;;;18.00;80.70;;;;;;4706153;30;20137;-63
2022/05/03 07:12:29;;;;;;;10.27;5.30;;;18.10;80.00;;;;;;4724351;30;20178;-63
2022/05/03 07:15:00;;;;;;;9.10;5.65;;;18.20;79.60;;;;;;4721635;30;20050;-63
2022/05/03 07:23:00;;;;;;;10.43;5.82;;;18.50;78.10;;;;;;4718052;30;20705;-63
2022/05/03 07:25:27;;;;;;;8.05;5.45;;;18.70;79.90;;;;;;4718326;30;22194;-63
2022/05/03 07:27:55;;;;;;;8.32;4.88;;;18.70;77.30;;;;;;4696765;30;20058;-62
2022/05/03 07:30:22;;;;;;;10.20;5.18;;;18.80;76.00;;;;;;4707434;30;22531;-63
2022/05/03 07:32:49;;;;;;;9.95;5.78;;;18.90;74.50;;;;;;4713286;30;20039;-62
2022/05/03 07:35:18;;;;;;;7.40;5.15;;;18.80;77.20;;;;;;4717004;30;22113;-62
2022/05/03 07:37:45;;;;;;;7.80;5.35;;;19.10;79.20;;;;;;4713789;30;20548;-62
2022/05/03 07:40:12;;;;;;;6.85;4.40;;;19.30;73.20;;;;;;4701881;30;20048;-62
2022/05/03 07:42:39;;;;;;;5.70;3.90;;;19.40;74.40;;;;;;4718328;30;20056;-63
2022/05/03 07:45:07;;;;;;;6.82;3.78;;;19.40;71.10;;;;;;4722751;30;20064;-63
2022/05/03 07:47:35;;;;;;;5.85;3.42;;;19.30;70.90;;;;;;4720934;30;20057;-65
2022/05/03 07:50:03;;;;;;;3.95;3.00;;;19.30;71.40;;;;;;4720859;30;20079;-63
2022/05/03 07:52:31;;;;;;;4.93;2.38;;;19.60;76.10;;;;;;4724187;30;20064;-63
2022/05/03 07:54:58;;;;;;;3.55;2.03;;;19.60;66.60;;;;;;4719111;30;20058;-63
2022/05/03 07:57:25;;;;;;;4.55;2.63;;;19.50;68.60;;;;;;4711102;30;20108;-63
2022/05/03 07:59:54;;;;;;;3.38;2.13;;;19.70;68.90;;;;;;4694637;30;20055;-63
2022/05/03 08:02:25;;;;;;;3.40;1.73;;;19.90;67.00;;;;;;4717381;30;20083;-63
2022/05/03 08:04:54;;;;;;;4.63;2.80;;;20.10;67.60;;;;;;4720929;30;20496;-63
2022/05/03 08:07:21;;;;;;;4.90;2.28;;;20.20;67.50;;;;;;4717063;30;20091;-66
2022/05/03 08:09:49;;;;;;;3.33;2.08;;;20.10;66.00;;;;;;4718722;30;24897;-63
2022/05/03 08:12:17;;;;;;;3.13;1.83;;;20.10;67.10;;;;;;4721407;30;20052;-63
2022/05/03 08:14:44;;;;;;;4.35;2.47;;;20.40;65.60;;;;;;4703914;30;20109;-63
2022/05/03 08:17:11;;;;;;;4.50;2.92;;;20.40;65.10;;;;;;4715113;30;20047;-64
2022/05/03 08:19:39;;;;;;;5.03;2.83;;;20.40;67.60;;;;;;4720112;30;20047;-64
2022/05/03 08:22:07;;;;;;;4.60;3.03;;;20.40;65.00;;;;;;4717432;30;20051;-63
2022/05/03 08:24:34;;;;;;;4.97;2.63;;;20.40;64.30;;;;;;4718493;30;20055;-64
2022/05/03 08:27:02;;;;;;;5.25;2.88;;;20.40;66.00;;;;;;4709552;30;20059;-64
2022/05/03 08:29:31;;;;;;;3.53;1.92;;;20.50;63.90;;;;;;4707433;30;20511;-63
2022/05/03 08:32:00;;;;;;;4.85;2.40;;;20.50;65.50;;;;;;4702336;30;21074;-63
2022/05/03 08:34:28;;;;;;;4.75;1.98;;;20.70;66.20;;;;;;4686179;30;20470;-63
2022/05/03 08:42:28;;;;;;;5.18;2.42;;;20.80;61.30;;;;;;4715828;30;20097;-63
2022/05/03 08:44:56;;;;;;;2.80;2.25;;;20.80;64.00;;;;;;4719094;30;20067;-63
2022/05/03 08:47:25;;;;;;;5.72;3.03;;;20.90;62.90;;;;;;4710955;30;20063;-63
2022/05/03 08:50:10;;;;;;;3.60;2.63;;;21.00;64.20;;;;;;4716613;30;20062;-64
2022/05/03 08:52:49;;;;;;;2.85;2.10;;;21.10;60.70;;;;;;4700656;30;20796;-63
2022/05/03 08:55:17;;;;;;;6.82;3.13;;;20.80;61.60;;;;;;4719621;30;20112;-64
2022/05/03 08:57:45;;;;;;;4.10;2.53;;;20.90;62.00;;;;;;4717821;29;20716;-64
2022/05/03 09:00:13;;;;;;;5.28;2.42;;;21.00;61.30;;;;;;4719153;30;20059;-63
2022/05/03 09:02:46;;;;;;;4.47;2.40;;;21.00;58.70;;;;;;4717562;30;20051;-64
2022/05/03 09:05:14;;;;;;;7.18;3.30;;;21.10;63.10;;;;;;4715435;30;20792;-64
2022/05/03 09:07:51;;;;;;;3.63;1.92;;;21.20;61.30;;;;;;4680875;30;20118;-64
2022/05/03 09:10:25;;;;;;;5.75;2.20;;;21.50;60.10;;;;;;4718771;30;20516;-64
2022/05/03 09:12:55;;;;;;;3.22;2.22;;;21.50;58.90;;;;;;4697995;30;20093;-64
2022/05/03 09:15:30;;;;;;;4.47;1.90;;;21.50;57.40;;;;;;4716911;30;20375;-64
2022/05/03 09:17:59;;;;;;;5.03;2.75;;;21.40;59.20;;;;;;4712253;30;20697;-64
2022/05/03 09:26:32;;;;;;;3.17;1.90;;;21.50;57.50;;;;;;4703738;30;20055;-64
2022/05/03 09:29:10;;;;;;;7.32;2.15;;;21.60;58.30;;;;;;4702714;30;20059;-65
2022/05/03 09:31:47;;;;;;;3.22;2.08;;;21.70;57.50;;;;;;4713907;30;20060;-64
2022/05/03 09:34:25;;;;;;;3.60;2.63;;;21.70;58.00;;;;;;4717549;30;20063;-64
2022/05/03 09:36:58;;;;;;;5.25;1.80;;;21.80;57.50;;;;;;4700576;30;22100;-64
2022/05/03 09:39:38;;;;;;;3.25;1.90;;;21.80;55.40;;;;;;4715906;30;20736;-64
2022/05/03 09:42:15;;;;;;;3.42;1.60;;;21.90;57.00;;;;;;4715567;30;20063;-64
2022/05/03 09:45:02;;;;;;;3.17;1.92;;;21.90;56.80;;;;;;4718431;30;20174;-64
2022/05/03 09:47:34;;;;;;;4.88;2.13;;;21.90;55.90;;;;;;4715920;30;20063;-64
2022/05/03 09:50:02;;;;;;;5.18;2.72;;;21.90;57.50;;;;;;4698825;30;20496;-64
2022/05/03 09:52:35;;;;;;;3.20;2.38;;;22.10;57.90;;;;;;4712679;30;20625;-65
2022/05/03 09:55:07;;;;;;;9.60;3.38;;;22.20;59.10;;;;;;4713469;30;20062;-65
2022/05/03 09:57:43;;;;;;;3.85;2.20;;;22.20;56.20;;;;;;4722226;30;20063;-64
2022/05/03 10:00:12;;;;;;;4.18;2.47;;;22.10;56.80;;;;;;4717866;30;20059;-64
2022/05/03 10:02:42;;;;;;;5.43;2.20;;;22.20;57.30;;;;;;4717913;30;20770;-64
2022/05/03 10:05:16;;;;;;;6.15;2.20;;;22.20;53.60;;;;;;4717962;30;20607;-64
2022/05/03 10:07:44;;;;;;;3.40;2.30;;;22.10;53.60;;;;;;4722667;30;20082;-64
2022/05/03 10:10:12;;;;;;;4.78;2.13;;;22.10;54.50;;;;;;4717778;30;20448;-64
2022/05/03 10:12:42;;;;;;;4.35;1.73;;;22.00;51.70;;;;;;4718686;30;20044;-64
2022/05/03 10:15:11;;;;;;;3.13;1.52;;;22.10;52.30;;;;;;4718305;30;22530;-64
2022/05/03 10:20:46;;;;;;;3.60;2.08;;;22.50;53.30;;;;;;4720917;30;20047;-63
2022/05/03 10:23:35;;;;;;;3.38;1.98;;;22.70;50.90;;;;;;4717061;30;20052;-64
2022/05/03 10:26:03;;;;;;;4.35;1.60;;;22.60;49.30;;;;;;4694332;30;20176;-64
2022/05/03 10:29:05;;;;;;;3.72;1.85;;;22.60;49.80;;;;;;4701218;30;20067;-63
2022/05/03 10:31:56;;;;;;;2.17;1.50;;;22.70;51.70;;;;;;4714998;30;20059;-65
2022/05/03 10:34:48;;;;;;;2.73;1.87;;;22.70;47.90;;;;;;4722966;30;22100;-64
2022/05/03 10:37:18;;;;;;;4.57;2.30;;;22.60;50.10;;;;;;4721785;30;20311;-63
2022/05/03 10:39:46;;;;;;;4.45;2.30;;;22.90;51.30;;;;;;4722508;30;22195;-64
2022/05/03 10:42:15;;;;;;;3.28;1.95;;;22.90;49.50;;;;;;4719263;30;20047;-63
2022/05/03 10:44:58;;;;;;;4.20;2.33;;;22.70;45.80;;;;;;4719939;30;20062;-64
2022/05/03 10:47:48;;;;;;;3.15;2.03;;;22.10;51.00;;;;;;4712980;30;20060;-64
2022/05/03 10:50:15;;;;;;;5.68;2.67;;;21.90;50.80;;;;;;4720829;30;20158;-63
2022/05/03 10:52:44;;;;;;;4.03;2.38;;;21.90;50.00;;;;;;4715965;30;20055;-63
2022/05/03 10:55:13;;;;;;;3.35;2.00;;;21.90;50.00;;;;;;4710751;30;20056;-63
2022/05/03 10:58:18;;;;;;;5.25;1.92;;;22.20;47.70;;;;;;4710260;30;20235;-63
2022/05/03 11:01:05;;;;;;;3.92;2.15;;;22.80;48.90;;;;;;4719981;30;20400;-64
2022/05/03 11:03:35;;;;;;;3.10;1.83;;;23.40;50.70;;;;;;4721414;30;20068;-64
2022/05/03 11:06:25;;;;;;;3.10;2.08;;;23.50;49.00;;;;;;4705994;30;20059;-64
2022/05/03 11:11:50;;;;;;;3.92;2.35;;;23.40;46.50;;;;;;4721082;30;21885;-63
2022/05/03 11:14:27;;;;;;;4.25;2.08;;;23.20;48.50;;;;;;4723018;30;20094;-63
2022/05/03 11:17:09;;;;;;;4.82;2.25;;;22.70;47.80;;;;;;4715018;30;22464;-63
2022/05/03 11:19:58;;;;;;;4.20;2.33;;;22.40;51.00;;;;;;4706612;30;20498;-64
2022/05/03 11:22:35;;;;;;;4.80;2.42;;;22.10;48.30;;;;;;4697632;30;20203;-63
2022/05/03 11:25:08;;;;;;;5.45;1.95;;;22.10;50.00;;;;;;4718930;30;20062;-64
2022/05/03 11:27:36;;;;;;;6.35;2.58;;;22.10;50.00;;;;;;4722093;30;22117;-63
2022/05/03 11:30:11;;;;;;;3.67;2.55;;;22.10;51.10;;;;;;4722180;30;21201;-66
2022/05/03 11:32:41;;;;;;;3.83;2.00;;;22.70;49.10;;;;;;4722601;30;20695;-65
2022/05/03 11:35:11;;;;;;;3.97;1.98;;;23.20;48.30;;;;;;4695505;30;20183;-65
2022/05/03 11:37:46;;;;;;;6.15;1.95;;;23.40;47.20;;;;;;4705404;30;20372;-64
2022/05/03 11:40:15;;;;;;;3.33;1.88;;;23.30;48.20;;;;;;4703104;30;20199;-63
2022/05/03 11:42:44;;;;;;;5.43;1.98;;;22.70;45.30;;;;;;4719876;30;20091;-63
2022/05/03 11:45:13;;;;;;;5.78;2.47;;;22.40;45.30;;;;;;4696789;30;20192;-63
2022/05/03 11:47:43;;;;;;;4.88;2.28;;;22.20;46.80;;;;;;4708650;30;20070;-63
2022/05/03 11:55:58;;;;;;;5.00;2.58;;;22.10;48.50;;;;;;4721609;30;20358;-63
2022/05/03 11:56:09;;;;;;;3.50;1.50;;;21.50;47.40;;;;;;4719520;30;20051;-63
2022/05/03 11:58:39;;;;;;;3.35;1.05;;;21.50;49.50;;;;;;4704878;30;20354;-63
2022/05/03 12:01:13;;;;;;;3.22;1.00;;;21.10;51.10;;;;;;4689873;30;20101;-63
2022/05/03 12:03:48;;;;;;;2.42;0.70;;;20.70;51.00;;;;;;4697588;30;20812;-62
2022/05/03 12:06:16;;;;;;;2.25;0.93;;;20.60;51.20;;;;;;4702063;30;20532;-62
2022/05/03 12:08:45;;;;;;;1.45;0.77;;;20.60;52.00;;;;;;4703739;30;20064;-62
2022/05/03 12:11:21;;;;;;;1.52;0.60;;;20.40;52.00;;;;;;4694773;30;20055;-64
2022/05/03 12:13:48;;;;;;;2.42;1.10;;;20.20;53.20;;;;;;4718256;30;20051;-63
2022/05/03 12:16:21;;;;;;;4.10;1.88;;;20.10;54.80;;;;;;4720204;30;20418;-63
2022/05/03 12:18:49;;;;;;;3.03;1.20;;;20.20;54.70;;;;;;4708672;30;20497;-62
2022/05/03 12:21:22;;;;;;;2.03;1.45;;;20.30;55.90;;;;;;4709578;30;20047;-62
2022/05/03 12:23:51;;;;;;;7.82;6.35;;;20.60;55.10;;;;;;4719141;30;20123;-62
2022/05/03 12:26:25;;;;;;;4.30;2.20;;;21.00;54.50;;;;;;4702043;30;22390;-62
2022/05/03 12:28:57;;;;;;;2.03;1.50;;;21.00;54.10;;;;;;4714661;30;20060;-62
2022/05/03 12:31:36;;;;;;;2.30;1.00;;;20.80;53.60;;;;;;4715243;30;20059;-62
2022/05/03 12:34:21;;;;;;;2.22;0.95;;;20.80;54.00;;;;;;4714959;30;20174;-62
2022/05/03 12:36:48;;;;;;;2.83;1.23;;;20.90;53.40;;;;;;4699056;30;20059;-62
2022/05/03 12:39:23;;;;;;;2.15;0.98;;;21.00;53.10;;;;;;4718532;30;20178;-62
2022/05/03 12:42:12;;;;;;;2.22;1.30;;;20.80;52.50;;;;;;4691173;30;20063;-62
2022/05/03 12:44:49;;;;;;;2.67;0.75;;;21.00;51.40;;;;;;4716232;30;22522;-62
2022/05/03 12:47:16;;;;;;;10.20;8.15;;;20.90;51.30;;;;;;4705249;30;20056;-62
2022/05/03 12:49:43;;;;;;;20.73;17.17;;;20.90;51.90;;;;;;4691217;30;20056;-62
2022/05/03 12:52:11;;;;;;;11.35;8.95;;;21.10;51.40;;;;;;4715460;29;20689;-63
2022/05/03 12:54:43;;;;;;;12.43;11.35;;;21.60;51.60;;;;;;4717489;30;20732;-63
2022/05/03 12:59:59;;;;;;;3.97;1.50;;;21.70;51.80;;;;;;4718387;30;20116;-63
2022/05/03 13:02:26;;;;;;;5.38;3.42;;;21.60;52.60;;;;;;4715505;30;20051;-63
2022/05/03 13:04:53;;;;;;;3.05;2.40;;;21.50;54.00;;;;;;4694091;30;20058;-62
2022/05/03 13:07:21;;;;;;;3.15;1.00;;;21.30;51.00;;;;;;4705846;30;20051;-62
2022/05/03 13:09:48;;;;;;;3.75;1.85;;;21.20;53.00;;;;;;4705969;30;20078;-62
2022/05/03 13:12:16;;;;;;;2.15;1.73;;;21.30;55.00;;;;;;4718554;30;20071;-63
2022/05/03 13:14:44;;;;;;;1.60;1.17;;;21.30;54.70;;;;;;4716285;30;20056;-62
2022/05/03 13:17:13;;;;;;;3.25;1.23;;;21.20;53.10;;;;;;4708455;30;21352;-63
2022/05/03 13:19:41;;;;;;;2.95;1.45;;;21.10;53.00;;;;;;4695337;30;20052;-63
2022/05/03 13:22:09;;;;;;;4.15;1.30;;;21.10;54.50;;;;;;4717251;30;20227;-62
2022/05/03 13:24:36;;;;;;;2.25;1.10;;;21.10;54.20;;;;;;4717510;30;20707;-63
2022/05/03 13:27:04;;;;;;;1.38;1.05;;;21.50;54.10;;;;;;4696031;30;21921;-63
2022/05/03 13:29:31;;;;;;;2.97;1.05;;;21.90;54.20;;;;;;4698992;30;20064;-62
2022/05/03 13:32:02;;;;;;;2.03;1.20;;;22.10;54.00;;;;;;4713077;30;20176;-63
2022/05/03 13:34:29;;;;;;;4.38;1.52;;;22.20;54.00;;;;;;4707413;30;20840;-64
2022/05/03 13:42:28;;;;;;;2.90;1.30;;;21.80;54.40;;;;;;4709719;30;20058;-62
2022/05/03 13:44:55;;;;;;;2.17;0.98;;;21.70;54.70;;;;;;4717325;30;20132;-62
2022/05/03 13:47:23;;;;;;;3.20;1.40;;;21.80;54.00;;;;;;4696932;30;20117;-64
2022/05/03 13:49:50;;;;;;;4.55;1.92;;;22.00;55.60;;;;;;4718674;30;20064;-64
2022/05/03 13:52:18;;;;;;;2.33;1.30;;;21.90;59.70;;;;;;4692095;30;20114;-63
2022/05/03 13:54:45;;;;;;;5.18;1.40;;;21.90;58.90;;;;;;4714370;30;20056;-64